createdAt,value
2022-08-08T00:02:30.052Z,95338.22
2022-08-08T00:04:55.581Z,95345.78
2022-08-08T00:07:33.759Z,95342.66
2022-08-08T00:10:11.130Z,95338.69
2022-08-08T00:12:48.421Z,95332.47
2022-08-08T00:15:55.849Z,95341.28
2022-08-08T00:18:24.094Z,95342.44
2022-08-08T00:20:57.036Z,95337.31
2022-08-08T00:23:43.000Z,95338.91
2022-08-08T00:26:26.292Z,95334.38
2022-08-08T00:29:03.920Z,95337.50
2022-08-08T00:32:15.261Z,95337.81
2022-08-08T00:35:04.608Z,95341.50
2022-08-08T00:37:47.299Z,95336.25
2022-08-08T00:41:12.143Z,95343.97
2022-08-08T00:44:02.216Z,95343.78
2022-08-08T00:47:19.663Z,95331.38
2022-08-08T00:50:40.802Z,95340.25
2022-08-08T00:53:20.781Z,95336.28
2022-08-08T00:56:47.324Z,95338.59
2022-08-08T01:00:05.041Z,95333.28
2022-08-08T01:03:58.444Z,95332.72
2022-08-08T01:06:27.513Z,95333.78
2022-08-08T01:09:49.087Z,95327.81
2022-08-08T01:13:23.013Z,95329.41
2022-08-08T01:16:38.038Z,95328.75
2022-08-08T01:20:02.204Z,95323.66
2022-08-08T01:24:06.074Z,95328.06
2022-08-08T01:26:27.420Z,95321.31
2022-08-08T01:29:35.716Z,95320.31
2022-08-08T01:33:03.148Z,95326.41
2022-08-08T01:36:23.798Z,95323.09
2022-08-08T01:39:27.697Z,95331.13
2022-08-08T01:42:10.630Z,95329.63
2022-08-08T01:44:55.979Z,95332.75
2022-08-08T01:48:16.599Z,95330.06
2022-08-08T01:50:59.052Z,95337.13
2022-08-08T01:55:26.312Z,95334.31
2022-08-08T01:56:47.053Z,95336.41
2022-08-08T02:00:01.866Z,95339.97
2022-08-08T02:03:55.179Z,95343.00
2022-08-08T02:06:31.846Z,95338.66
2022-08-08T02:09:18.246Z,95333.72
2022-08-08T02:11:58.675Z,95336.84
2022-08-08T02:14:50.070Z,95341.59
2022-08-08T02:17:42.727Z,95338.63
2022-08-08T02:21:02.418Z,95339.75
2022-08-08T02:23:23.380Z,95342.50
2022-08-08T02:26:10.052Z,95335.59
2022-08-08T02:29:00.467Z,95339.59
2022-08-08T02:32:00.720Z,95344.19
2022-08-08T02:35:12.010Z,95336.72
2022-08-08T02:38:29.184Z,95339.38
2022-08-08T02:41:58.813Z,95332.53
2022-08-08T02:45:21.445Z,95337.94
2022-08-08T02:48:27.373Z,95333.09
2022-08-08T02:51:55.136Z,95338.97
2022-08-08T02:55:03.353Z,95330.03
2022-08-08T02:58:04.856Z,95335.97
2022-08-08T03:01:20.608Z,95326.44
2022-08-08T03:05:03.952Z,95333.09
2022-08-08T03:07:59.959Z,95336.78
2022-08-08T03:12:01.498Z,95330.91
2022-08-08T03:16:04.028Z,95334.53
2022-08-08T03:17:52.032Z,95339.31
2022-08-08T03:20:46.817Z,95340.81
2022-08-08T03:23:24.482Z,95343.97
2022-08-08T03:26:08.485Z,95342.50
2022-08-08T03:28:42.398Z,95342.03
2022-08-08T03:31:26.598Z,95348.47
2022-08-08T03:34:00.365Z,95359.13
2022-08-08T03:36:31.294Z,95355.41
2022-08-08T03:39:14.361Z,95359.19
2022-08-08T03:42:28.742Z,95357.78
2022-08-08T03:44:38.700Z,95360.88
2022-08-08T03:47:20.623Z,95364.91
2022-08-08T03:50:00.919Z,95367.88
2022-08-08T03:52:37.052Z,95368.66
2022-08-08T03:55:56.344Z,95365.41
2022-08-08T03:58:31.181Z,95370.09
2022-08-08T04:01:23.649Z,95361.00
2022-08-08T04:03:57.343Z,95366.81
2022-08-08T04:06:29.668Z,95367.28
2022-08-08T04:09:08.796Z,95369.88
2022-08-08T04:11:57.742Z,95365.16
2022-08-08T04:14:45.141Z,95369.88
2022-08-08T04:17:22.578Z,95373.09
2022-08-08T04:20:04.797Z,95372.06
2022-08-08T04:22:34.284Z,95375.28
2022-08-08T04:25:05.017Z,95375.28
2022-08-08T04:28:02.570Z,95376.94
2022-08-08T04:30:23.074Z,95381.72
2022-08-08T04:32:54.155Z,95388.06
2022-08-08T04:35:26.445Z,95374.81
2022-08-08T04:37:57.938Z,95381.13
2022-08-08T04:40:34.737Z,95385.88
2022-08-08T04:43:05.544Z,95385.88
2022-08-08T04:45:41.526Z,95385.94
2022-08-08T04:48:11.625Z,95375.41
2022-08-08T04:50:44.568Z,95384.94
2022-08-08T04:54:27.428Z,95380.66
2022-08-08T04:56:08.377Z,95383.28
2022-08-08T04:58:39.014Z,95383.50
2022-08-08T05:01:10.813Z,95396.59
2022-08-08T05:04:09.956Z,95397.19
2022-08-08T05:06:39.056Z,95391.41
2022-08-08T05:09:08.847Z,95394.34
2022-08-08T05:11:40.830Z,95395.63
2022-08-08T05:14:14.949Z,95396.50
2022-08-08T05:17:00.143Z,95398.44
2022-08-08T05:20:11.232Z,95393.66
2022-08-08T05:22:21.971Z,95399.16
2022-08-08T05:24:52.067Z,95401.97
2022-08-08T05:27:23.881Z,95407.22
2022-08-08T05:29:56.514Z,95403.41
2022-08-08T05:32:36.440Z,95407.69
2022-08-08T05:35:09.490Z,95397.88
2022-08-08T05:37:52.554Z,95400.09
2022-08-08T05:40:30.427Z,95399.84
2022-08-08T05:43:38.329Z,95407.25
2022-08-08T05:46:03.604Z,95407.25
2022-08-08T05:48:36.039Z,95408.25
2022-08-08T05:51:14.417Z,95409.28
2022-08-08T05:54:24.686Z,95417.50
2022-08-08T05:56:42.373Z,95424.63
2022-08-08T06:00:00.313Z,95427.22
2022-08-08T06:02:34.270Z,95417.06
2022-08-08T06:05:06.878Z,95419.88
2022-08-08T06:08:01.988Z,95421.16
2022-08-08T06:10:34.670Z,95418.97
2022-08-08T06:13:04.455Z,95421.06
2022-08-08T06:15:50.944Z,95414.66
2022-08-08T06:18:30.229Z,95415.91
2022-08-08T06:21:03.435Z,95423.03
2022-08-08T06:23:52.409Z,95426.19
2022-08-08T06:26:43.291Z,95426.19
2022-08-08T06:29:48.824Z,95430.72
2022-08-08T06:32:15.440Z,95427.84
2022-08-08T06:35:11.855Z,95424.03
2022-08-08T06:37:46.451Z,95423.31
2022-08-08T06:40:21.269Z,95424.63
2022-08-08T06:42:56.741Z,95424.53
2022-08-08T06:45:34.076Z,95429.75
2022-08-08T06:48:04.528Z,95427.59
2022-08-08T06:50:39.508Z,95434.00
2022-08-08T06:53:13.993Z,95429.28
2022-08-08T06:56:00.497Z,95439.63
2022-08-08T06:58:33.126Z,95435.25
2022-08-08T07:02:11.675Z,95430.94
2022-08-08T07:04:37.584Z,95443.81
2022-08-08T07:06:54.624Z,95440.19
2022-08-08T07:09:45.746Z,95433.09
2022-08-08T07:12:24.257Z,95434.78
2022-08-08T07:15:05.600Z,95445.13
2022-08-08T07:17:56.584Z,95441.22
2022-08-08T07:20:32.671Z,95443.72
2022-08-08T07:23:08.547Z,95444.38
2022-08-08T07:25:54.583Z,95445.00
2022-08-08T07:28:31.370Z,95441.09
2022-08-08T07:31:04.780Z,95442.22
2022-08-08T07:33:38.036Z,95443.44
2022-08-08T07:36:23.968Z,95452.72
2022-08-08T07:38:54.597Z,95454.66
2022-08-08T07:41:26.528Z,95450.06
2022-08-08T07:43:59.379Z,95441.13
2022-08-08T07:46:30.524Z,95452.44
2022-08-08T07:49:05.507Z,95449.91
2022-08-08T07:51:52.974Z,95450.72
2022-08-08T07:54:33.276Z,95444.53
2022-08-08T07:57:16.936Z,95433.16
2022-08-08T07:59:57.365Z,95440.75
2022-08-08T08:02:38.276Z,95442.19
2022-08-08T08:05:19.850Z,95444.34
2022-08-08T08:07:54.663Z,95436.78
2022-08-08T08:10:33.151Z,95432.06
2022-08-08T08:13:25.507Z,95439.50
2022-08-08T08:16:17.021Z,95436.31
2022-08-08T08:18:56.146Z,95441.47
2022-08-08T08:21:35.407Z,95448.09
2022-08-08T08:24:49.501Z,95440.38
2022-08-08T08:27:22.390Z,95441.38
2022-08-08T08:29:57.518Z,95443.75
2022-08-08T08:32:32.064Z,95451.84
2022-08-08T08:35:08.768Z,95451.56
2022-08-08T08:37:59.287Z,95441.69
2022-08-08T08:40:29.700Z,95444.94
2022-08-08T08:43:02.875Z,95436.44
2022-08-08T08:45:32.720Z,95441.56
2022-08-08T08:48:04.332Z,95441.47
2022-08-08T08:50:40.990Z,95451.25
2022-08-08T08:53:28.136Z,95448.28
2022-08-08T08:56:18.237Z,95445.09
2022-08-08T08:58:56.035Z,95438.38
2022-08-08T09:01:42.118Z,95445.19
2022-08-08T09:04:31.076Z,95436.97
2022-08-08T09:07:13.788Z,95435.16
2022-08-08T09:09:55.161Z,95431.16
2022-08-08T09:12:30.293Z,95435.91
2022-08-08T09:15:01.832Z,95450.00
2022-08-08T09:17:42.038Z,95439.16
2022-08-08T09:21:57.969Z,95435.03
2022-08-08T09:23:17.654Z,95433.47
2022-08-08T09:26:00.790Z,95428.72
2022-08-08T09:28:38.854Z,95439.53
2022-08-08T09:31:42.149Z,95433.72
2022-08-08T09:34:32.209Z,95426.94
2022-08-08T09:37:57.269Z,95431.78
2022-08-08T09:40:01.749Z,95435.16
2022-08-08T09:42:44.302Z,95434.09
2022-08-08T09:45:55.081Z,95430.38
2022-08-08T09:48:21.903Z,95431.50
2022-08-08T09:50:58.016Z,95436.00
2022-08-08T09:53:56.413Z,95442.13
2022-08-08T09:56:25.325Z,95443.78
2022-08-08T09:59:07.830Z,95431.19
2022-08-08T10:01:58.206Z,95431.91
2022-08-08T10:04:41.555Z,95431.81
2022-08-08T10:07:15.977Z,95428.63
2022-08-08T10:10:00.015Z,95436.88
2022-08-08T10:12:53.004Z,95427.78
2022-08-08T10:15:24.314Z,95423.91
2022-08-08T10:18:05.900Z,95421.34
2022-08-08T10:20:57.783Z,95419.72
2022-08-08T10:23:44.052Z,95420.19
2022-08-08T10:26:29.946Z,95409.22
2022-08-08T10:29:05.786Z,95423.69
2022-08-08T10:31:53.205Z,95424.66
2022-08-08T10:34:25.261Z,95419.31
2022-08-08T10:36:59.724Z,95417.28
2022-08-08T10:39:43.087Z,95422.44
2022-08-08T10:42:19.428Z,95418.84
2022-08-08T10:44:50.302Z,95408.63
2022-08-08T10:47:20.760Z,95413.03
2022-08-08T10:50:00.416Z,95419.03
2022-08-08T10:52:34.196Z,95406.28
2022-08-08T10:55:06.091Z,95407.38
2022-08-08T10:57:50.355Z,95408.22
2022-08-08T11:00:25.745Z,95413.72
2022-08-08T11:02:54.246Z,95410.25
2022-08-08T11:05:23.155Z,95404.56
2022-08-08T11:08:38.004Z,95406.75
2022-08-08T11:10:43.115Z,95403.97
2022-08-08T11:13:28.757Z,95407.44
2022-08-08T11:16:01.030Z,95398.59
2022-08-08T11:18:37.600Z,95394.81
2022-08-08T11:21:10.615Z,95405.88
2022-08-08T11:24:01.668Z,95391.66
2022-08-08T11:26:32.010Z,95390.56
2022-08-08T11:29:02.703Z,95384.09
2022-08-08T11:31:39.625Z,95376.53
2022-08-08T11:34:25.682Z,95384.56
2022-08-08T11:37:15.602Z,95387.38
2022-08-08T11:39:57.558Z,95388.50
2022-08-08T11:42:26.789Z,95382.81
2022-08-08T11:44:56.265Z,95379.03
2022-08-08T11:47:24.992Z,95392.19
2022-08-08T11:50:10.528Z,95383.41
2022-08-08T11:52:45.230Z,95376.13
2022-08-08T11:55:18.843Z,95376.50
2022-08-08T11:57:51.519Z,95373.69
2022-08-08T12:00:21.475Z,95368.34
2022-08-08T12:02:54.305Z,95380.16
2022-08-08T12:05:33.698Z,95373.28
2022-08-08T12:08:02.256Z,95375.16
2022-08-08T12:10:36.441Z,95375.66
2022-08-08T12:13:06.770Z,95371.06
2022-08-08T12:15:42.280Z,95367.41
2022-08-08T12:18:20.611Z,95364.53
2022-08-08T12:20:49.783Z,95368.09
2022-08-08T12:23:30.502Z,95355.53
2022-08-08T12:26:17.317Z,95358.50
2022-08-08T12:28:57.200Z,95364.69
2022-08-08T12:31:39.403Z,95357.50
2022-08-08T12:34:36.058Z,95364.06
2022-08-08T12:37:08.143Z,95358.38
2022-08-08T12:39:59.860Z,95349.69
2022-08-08T12:42:27.466Z,95352.81
2022-08-08T12:45:59.712Z,95348.13
2022-08-08T12:48:10.057Z,95334.28
2022-08-08T12:50:54.610Z,95351.97
2022-08-08T12:53:35.234Z,95331.19
2022-08-08T12:56:17.698Z,95336.72
2022-08-08T12:58:54.601Z,95343.00
2022-08-08T13:01:36.908Z,95341.00
2022-08-08T13:04:19.402Z,95331.53
2022-08-08T13:06:57.105Z,95341.13
2022-08-08T13:10:00.778Z,95346.72
2022-08-08T13:12:29.758Z,95329.97
2022-08-08T13:15:03.533Z,95335.31
2022-08-08T13:18:08.594Z,95344.28
2022-08-08T13:20:23.739Z,95328.44
2022-08-08T13:23:30.274Z,95329.59
2022-08-08T13:25:58.774Z,95329.13
2022-08-08T13:28:32.427Z,95338.09
2022-08-08T13:31:03.887Z,95334.03
2022-08-08T13:33:42.740Z,95342.59
2022-08-08T13:36:12.064Z,95331.66
2022-08-08T13:38:40.947Z,95327.16
2022-08-08T13:41:16.085Z,95333.53
2022-08-08T13:43:46.846Z,95331.81
2022-08-08T13:46:28.331Z,95324.41
2022-08-08T13:50:33.901Z,95322.63
2022-08-08T13:52:00.855Z,95320.47
2022-08-08T13:54:31.830Z,95320.13
2022-08-08T13:57:12.523Z,95314.75
2022-08-08T13:59:48.241Z,95314.28
2022-08-08T14:02:21.186Z,95327.88
2022-08-08T14:04:54.395Z,95325.00
2022-08-08T14:07:25.977Z,95319.22
2022-08-08T14:10:04.427Z,95318.72
2022-08-08T14:12:39.686Z,95317.34
2022-08-08T14:15:23.459Z,95322.03
2022-08-08T14:18:36.111Z,95318.31
2022-08-08T14:20:56.883Z,95324.38
2022-08-08T14:24:03.857Z,95316.50
2022-08-08T14:26:28.392Z,95312.28
2022-08-08T14:28:58.191Z,95307.56
2022-08-08T14:32:05.877Z,95308.22
2022-08-08T14:34:19.374Z,95305.69
2022-08-08T14:36:54.602Z,95294.22
2022-08-08T14:39:25.049Z,95299.97
2022-08-08T14:42:10.852Z,95300.66
2022-08-08T14:44:39.415Z,95302.81
2022-08-08T14:47:16.994Z,95294.09
2022-08-08T14:50:06.309Z,95289.78
2022-08-08T14:52:54.237Z,95291.38
2022-08-08T14:55:41.732Z,95297.16
2022-08-08T14:58:16.323Z,95290.78
2022-08-08T15:00:49.884Z,95286.03
2022-08-08T15:03:18.462Z,95287.44
2022-08-08T15:05:53.957Z,95285.00
2022-08-08T15:08:34.347Z,95286.56
2022-08-08T15:11:04.725Z,95281.34
2022-08-08T15:13:39.806Z,95285.69
2022-08-08T15:16:12.029Z,95288.03
2022-08-08T15:18:50.015Z,95288.38
2022-08-08T15:21:21.160Z,95281.75
2022-08-08T15:23:50.840Z,95273.25
2022-08-08T15:26:20.202Z,95282.81
2022-08-08T15:28:53.082Z,95286.63
2022-08-08T15:31:57.667Z,95287.72
2022-08-08T15:34:29.160Z,95268.63
2022-08-08T15:36:59.308Z,95266.44
2022-08-08T15:39:31.230Z,95292.91
2022-08-08T15:41:59.670Z,95263.44
2022-08-08T15:44:29.779Z,95279.31
2022-08-08T15:46:59.571Z,95273.34
2022-08-08T15:49:29.464Z,95271.19
2022-08-08T15:52:05.796Z,95268.03
2022-08-08T15:54:38.298Z,95275.69
2022-08-08T15:57:09.290Z,95280.81
2022-08-08T16:00:05.912Z,95270.47
2022-08-08T16:02:30.329Z,95277.13
2022-08-08T16:04:59.921Z,95275.63
2022-08-08T16:07:50.910Z,95277.75
2022-08-08T16:13:27.449Z,95272.22
2022-08-08T16:13:30.799Z,95265.28
2022-08-08T16:15:58.559Z,95275.69
2022-08-08T16:18:35.106Z,95271.09
2022-08-08T16:21:10.313Z,95273.00
2022-08-08T16:23:55.778Z,95265.28
2022-08-08T16:26:34.147Z,95273.44
2022-08-08T16:29:06.988Z,95271.72
2022-08-08T16:31:37.354Z,95269.97
2022-08-08T16:34:06.732Z,95264.03
2022-08-08T16:36:37.437Z,95265.94
2022-08-08T16:39:16.926Z,95263.78
2022-08-08T16:42:00.966Z,95267.75
2022-08-08T16:44:34.248Z,95265.06
2022-08-08T16:47:21.819Z,95272.88
2022-08-08T16:50:01.456Z,95264.06
2022-08-08T16:55:06.258Z,95276.84
2022-08-08T16:55:52.854Z,95259.47
2022-08-08T16:58:15.893Z,95266.38
2022-08-08T17:00:48.641Z,95272.22
2022-08-08T17:03:18.106Z,95264.53
2022-08-08T17:05:54.190Z,95265.63
2022-08-08T17:08:23.692Z,95262.13
2022-08-08T17:10:58.796Z,95263.28
2022-08-08T17:13:41.134Z,95266.81
2022-08-08T17:16:22.085Z,95252.19
2022-08-08T17:18:52.953Z,95264.22
2022-08-08T17:21:21.527Z,95276.56
2022-08-08T17:24:00.941Z,95263.69
2022-08-08T17:26:31.899Z,95271.00
2022-08-08T17:29:04.525Z,95271.25
2022-08-08T17:31:44.517Z,95274.00
2022-08-08T17:34:36.122Z,95281.13
2022-08-08T17:37:06.722Z,95286.50
2022-08-08T17:40:04.569Z,95286.47
2022-08-08T17:42:26.901Z,95290.91
2022-08-08T17:44:54.953Z,95294.94
2022-08-08T17:47:28.218Z,95288.69
2022-08-08T17:50:00.722Z,95289.81
2022-08-08T17:52:30.892Z,95298.16
2022-08-08T17:54:59.263Z,95303.75
2022-08-08T17:57:28.822Z,95297.06
2022-08-08T18:00:03.322Z,95302.84
2022-08-08T18:02:32.244Z,95303.28
2022-08-08T18:05:04.791Z,95302.69
2022-08-08T18:08:03.284Z,95312.94
2022-08-08T18:10:31.007Z,95319.59
2022-08-08T18:13:04.062Z,95311.56
2022-08-08T18:15:35.578Z,95317.47
2022-08-08T18:18:09.139Z,95321.00
2022-08-08T18:20:54.817Z,95318.38
2022-08-08T18:23:27.479Z,95316.50
2022-08-08T18:26:01.521Z,95314.56
2022-08-08T18:28:34.862Z,95321.06
2022-08-08T18:31:21.765Z,95315.44
2022-08-08T18:34:25.292Z,95321.03
2022-08-08T18:36:37.819Z,95323.31
2022-08-08T18:39:07.232Z,95322.66
2022-08-08T18:41:51.551Z,95320.84
2022-08-08T18:44:28.831Z,95325.97
2022-08-08T18:46:58.132Z,95328.16
2022-08-08T18:49:32.324Z,95331.16
2022-08-08T18:52:22.104Z,95335.47
2022-08-08T18:54:59.288Z,95336.56
2022-08-08T18:57:33.481Z,95342.09
2022-08-08T19:00:15.750Z,95344.66
2022-08-08T19:02:48.313Z,95340.75
2022-08-08T19:05:31.737Z,95344.53
2022-08-08T19:08:03.027Z,95348.34
2022-08-08T19:10:32.275Z,95354.34
2022-08-08T19:13:03.205Z,95355.13
2022-08-08T19:15:34.171Z,95361.13
2022-08-08T19:18:30.816Z,95361.97
2022-08-08T19:20:52.138Z,95363.41
2022-08-08T19:23:21.645Z,95361.84
2022-08-08T19:26:26.975Z,95364.31
2022-08-08T19:28:41.341Z,95365.47
2022-08-08T19:31:13.148Z,95367.53
2022-08-08T19:34:04.272Z,95366.50
2022-08-08T19:36:34.853Z,95378.69
2022-08-08T19:39:02.877Z,95388.13
2022-08-08T19:41:33.577Z,95392.19
2022-08-08T19:44:03.742Z,95396.78
2022-08-08T19:46:34.008Z,95397.91
2022-08-08T19:49:03.015Z,95397.16
2022-08-08T19:51:34.581Z,95401.09
2022-08-08T19:54:09.543Z,95400.50
2022-08-08T19:56:39.864Z,95403.31
2022-08-08T19:59:10.113Z,95403.31
2022-08-08T20:02:01.422Z,95406.81
2022-08-08T20:04:29.856Z,95408.84
2022-08-08T20:06:57.967Z,95404.59
2022-08-08T20:09:36.337Z,95404.75
2022-08-08T20:12:14.019Z,95407.13
2022-08-08T20:14:51.824Z,95400.03
2022-08-08T20:17:26.821Z,95400.31
2022-08-08T20:19:57.289Z,95401.41
2022-08-08T20:22:30.535Z,95395.72
2022-08-08T20:25:00.277Z,95400.44
2022-08-08T20:27:32.863Z,95403.28
2022-08-08T20:30:52.845Z,95398.22
2022-08-08T20:33:02.397Z,95396.63
2022-08-08T20:35:32.639Z,95402.63
2022-08-08T20:38:18.897Z,95405.44
2022-08-08T20:40:57.709Z,95403.97
2022-08-08T20:43:43.490Z,95399.16
2022-08-08T20:46:14.716Z,95398.16
2022-08-08T20:48:44.184Z,95405.41
2022-08-08T20:51:12.834Z,95406.34
2022-08-08T20:53:58.822Z,95404.34
2022-08-08T20:56:35.517Z,95415.66
2022-08-08T20:59:06.439Z,95409.19
2022-08-08T21:02:05.583Z,95404.44
2022-08-08T21:04:27.445Z,95410.66
2022-08-08T21:06:56.107Z,95408.41
2022-08-08T21:09:24.210Z,95412.03
2022-08-08T21:12:03.486Z,95416.28
2022-08-08T21:14:34.703Z,95410.25
2022-08-08T21:17:06.092Z,95416.06
2022-08-08T21:19:45.164Z,95421.31
2022-08-08T21:22:16.067Z,95423.03
2022-08-08T21:24:52.642Z,95419.53
2022-08-08T21:27:38.853Z,95423.91
2022-08-08T21:30:18.791Z,95423.75
2022-08-08T21:32:51.578Z,95424.25
2022-08-08T21:36:16.716Z,95429.81
2022-08-08T21:38:17.133Z,95428.81
2022-08-08T21:40:55.101Z,95434.16
2022-08-08T21:43:33.158Z,95435.16
2022-08-08T21:48:05.362Z,95443.28
2022-08-08T21:48:51.631Z,95441.63
2022-08-08T21:54:23.379Z,95436.97
2022-08-08T21:54:31.361Z,95433.72
2022-08-08T21:57:00.837Z,95434.19
2022-08-08T22:00:02.986Z,95443.09
2022-08-08T22:02:19.605Z,95439.16
2022-08-08T22:04:52.684Z,95436.19
2022-08-08T22:07:26.006Z,95435.56
2022-08-08T22:10:03.006Z,95436.53
2022-08-08T22:12:38.836Z,95444.53
2022-08-08T22:15:08.439Z,95445.28
2022-08-08T22:17:41.555Z,95450.41
2022-08-08T22:20:23.573Z,95445.38
2022-08-08T22:22:53.752Z,95453.63
2022-08-08T22:25:25.724Z,95451.69
2022-08-08T22:28:03.590Z,95446.94
2022-08-08T22:30:33.486Z,95446.09
2022-08-08T22:33:01.980Z,95451.56
2022-08-08T22:36:05.031Z,95456.75
2022-08-08T22:38:20.728Z,95458.25
2022-08-08T22:40:49.932Z,95459.34
2022-08-08T22:43:18.870Z,95461.31
2022-08-08T22:45:52.669Z,95461.44
2022-08-08T22:48:21.673Z,95460.53
2022-08-08T22:50:51.048Z,95461.50
2022-08-08T22:54:34.177Z,95468.84
2022-08-08T22:56:08.990Z,95468.84
2022-08-08T22:58:38.065Z,95467.63
2022-08-08T23:02:01.639Z,95457.75
2022-08-08T23:03:56.612Z,95457.19
2022-08-08T23:06:25.448Z,95458.84
2022-08-08T23:09:00.115Z,95450.84
2022-08-08T23:11:31.372Z,95459.94
2022-08-08T23:14:17.975Z,95458.34
2022-08-08T23:16:57.737Z,95453.22
2022-08-08T23:19:27.927Z,95449.28
2022-08-08T23:22:01.394Z,95446.13
2022-08-08T23:24:36.761Z,95442.75
2022-08-08T23:27:10.116Z,95456.78
2022-08-08T23:29:40.558Z,95445.72
2022-08-08T23:32:10.955Z,95445.69
2022-08-08T23:34:39.849Z,95443.31
2022-08-08T23:37:17.728Z,95443.31
2022-08-08T23:39:55.374Z,95442.53
2022-08-08T23:42:25.972Z,95445.72
2022-08-08T23:44:55.718Z,95451.53
2022-08-08T23:49:02.868Z,95454.63
2022-08-08T23:50:30.021Z,95458.69
2022-08-08T23:52:58.922Z,95457.81
2022-08-08T23:55:33.299Z,95460.63
2022-08-08T23:58:09.987Z,95454.59
